Time;durP1;ratioP1;P1;durP2;ratioP2;P2;SDS_P1;SDS_P2;PMS_P1;PMS_P2;Temp;Humidity;BMP_temperature;BMP_pressure;BME280_temperature;BME280_humidity;BME280_pressure;Samples;Min_cycle;Max_cycle;Signal;HPM_P1;HPM_P2
2024/03/30 00:00:13;;;;;;;11.10;5.70;;;;;;;-147.86;100.00;2540.08;105985;1251;60407;-48
2024/03/30 00:02:40;;;;;;;9.10;5.70;;;;;;;-147.86;100.00;3148.91;105992;1257;73482;-48
2024/03/30 00:05:07;;;;;;;13.40;6.00;;;;;;;-147.86;100.00;3662.86;105963;1251;64707;-50
2024/03/30 00:07:40;;;;;;;10.30;5.90;;;;;;;-147.86;100.00;4122.23;106026;1251;72755;-54
2024/03/30 00:10:08;;;;;;;15.40;6.50;;;;;;;-147.86;100.00;4366.85;105968;1251;61948;-47
2024/03/30 00:12:35;;;;;;;11.90;6.80;;;;;;;-147.86;100.00;4402.52;105954;1251;61507;-50
2024/03/30 00:15:03;;;;;;;13.30;7.40;;;;;;;-147.86;100.00;4221.86;105976;1256;73778;-47
2024/03/30 00:17:30;;;;;;;14.30;8.50;;;;;;;-147.86;100.00;4013.68;105982;1251;65182;-47
2024/03/30 00:19:57;;;;;;;17.50;9.00;;;;;;;-147.86;100.00;3909.01;105904;1251;72876;-47
2024/03/30 00:22:24;;;;;;;19.00;9.50;;;;;;;-147.86;100.00;3941.19;105981;1251;61731;-48
2024/03/30 00:24:50;;;;;;;14.80;9.80;;;;;;;-147.86;100.00;4061.75;105950;1251;60523;-48
2024/03/30 00:27:17;;;;;;;21.80;11.10;;;;;;;-147.86;100.00;4232.33;106015;1253;73758;-47
2024/03/30 00:29:45;;;;;;;18.70;11.00;;;;;;;-147.86;100.00;4400.58;105935;1256;64411;-46
2024/03/30 00:32:13;;;;;;;19.20;11.10;;;;;;;-147.86;100.00;4653.37;105965;1251;72412;-47
2024/03/30 00:34:40;;;;;;;19.60;10.80;;;;;;;-147.86;100.00;4942.24;105994;1252;60807;-47
2024/03/30 00:37:07;;;;;;;20.60;10.50;;;;;;;-147.86;100.00;5144.65;105971;1251;60453;-49
2024/03/30 00:39:33;;;;;;;17.20;10.50;;;;;;;-147.86;100.00;5416.10;105958;1255;73601;-46
2024/03/30 00:42:00;;;;;;;18.00;9.50;;;;;;;-147.86;100.00;5675.55;105911;1251;65625;-50
2024/03/30 00:44:27;;;;;;;21.10;10.30;;;;;;;-147.86;100.00;5899.73;105943;1254;72577;-47
2024/03/30 00:46:54;;;;;;;22.50;10.80;;;;;;;-147.86;100.00;6134.38;105922;1252;62920;-49
2024/03/30 00:49:21;;;;;;;19.50;9.90;;;;;;;-147.86;100.00;6266.26;105999;1251;61343;-48
2024/03/30 00:51:47;;;;;;;15.80;9.20;;;;;;;-147.86;100.00;6384.96;105981;1255;74395;-46
2024/03/30 00:54:14;;;;;;;15.10;9.10;;;;;;;-147.86;100.00;6509.09;105952;1251;65307;-48
2024/03/30 00:56:41;;;;;;;18.60;9.00;;;;;;;-147.86;100.00;6565.73;105937;1251;72462;-48
2024/03/30 00:59:08;;;;;;;14.00;9.40;;;;;;;-147.86;100.00;6572.71;105970;1251;61141;-48
2024/03/30 01:01:35;;;;;;;19.60;9.40;;;;;;;-147.86;100.00;6525.00;105902;1251;61234;-47
2024/03/30 01:04:03;;;;;;;19.40;9.00;;;;;;;-147.86;100.00;6476.51;105949;1255;74626;-46
2024/03/30 01:06:30;;;;;;;15.90;9.00;;;;;;;-147.86;100.00;6403.59;105962;1251;64507;-47
2024/03/30 01:08:57;;;;;;;14.10;7.90;;;;;;;-147.86;100.00;6179.38;105938;1254;72463;-47
2024/03/30 01:11:25;;;;;;;16.10;8.40;;;;;;;-147.86;100.00;5929.99;105933;1251;61649;-49
2024/03/30 01:13:52;;;;;;;13.10;7.50;;;;;;;-147.86;100.00;5722.10;105667;1256;61243;-47
2024/03/30 01:16:20;;;;;;;16.10;7.70;;;;;;;-147.86;100.00;5542.15;105964;1255;74550;-52
2024/03/30 01:18:47;;;;;;;12.60;7.60;;;;;;;-147.86;100.00;5446.75;105957;1251;65521;-49
2024/03/30 01:21:14;;;;;;;10.60;6.60;;;;;;;-147.86;100.00;5530.12;105977;1257;72738;-51
2024/03/30 01:23:49;;;;;;;14.30;7.50;;;;;;;-147.86;100.00;5724.05;105944;1251;61737;-47
2024/03/30 01:26:18;;;;;;;13.40;6.90;;;;;;;-147.86;100.00;5788.42;105953;1257;61121;-47
2024/03/30 01:28:45;;;;;;;11.70;7.20;;;;;;;-147.86;100.00;6088.23;106017;1251;74626;-48
2024/03/30 01:31:13;;;;;;;11.90;7.00;;;;;;;-147.86;100.00;6339.19;105902;1251;65171;-46
2024/03/30 01:33:40;;;;;;;18.70;7.10;;;;;;;-147.86;100.00;6699.17;105941;1251;71112;-46
2024/03/30 01:36:07;;;;;;;17.40;7.00;;;;;;;-147.86;100.00;7121.26;105819;1254;61211;-49
2024/03/30 01:38:34;;;;;;;16.10;6.10;;;;;;;-147.86;100.00;7506.15;105965;1251;61377;-49
2024/03/30 01:41:01;;;;;;;8.60;6.20;;;;;;;-147.86;100.00;7875.17;105938;1257;74449;-49
2024/03/30 01:43:27;;;;;;;12.20;6.40;;;;;;;-147.86;100.00;8269.84;106009;1251;64527;-48
2024/03/30 01:45:54;;;;;;;18.60;6.50;;;;;;;-147.86;100.00;8564.80;106036;1254;72644;-45
2024/03/30 01:48:22;;;;;;;18.30;6.80;;;;;;;-147.86;100.00;8761.20;105796;1254;61163;-46
2024/03/30 01:50:49;;;;;;;19.30;7.40;;;;;;;-147.86;100.00;8878.81;105792;1251;61275;-49
2024/03/30 01:53:24;;;;;;;20.80;7.00;;;;;;;-147.86;100.00;9016.21;105797;1257;74732;-46
2024/03/30 01:55:51;;;;;;;14.40;6.30;;;;;;;-147.86;100.00;9370.66;106018;1250;64606;-47
2024/03/30 01:58:24;;;;;;;16.00;5.80;;;;;;;-147.86;100.00;9414.11;105805;1258;72432;-47
2024/03/30 02:00:55;;;;;;;20.50;6.10;;;;;;;-147.86;100.00;9797.69;105977;1256;61619;-47
2024/03/30 02:03:23;;;;;;;14.40;6.30;;;;;;;-147.86;100.00;10027.92;105939;1251;61554;-46
2024/03/30 02:05:52;;;;;;;17.90;6.30;;;;;;;-147.86;100.00;10148.66;105958;1252;74548;-45
2024/03/30 02:08:19;;;;;;;12.40;5.80;;;;;;;-147.86;100.00;10488.43;105923;1255;65359;-44
2024/03/30 02:10:49;;;;;;;16.20;5.90;;;;;;;-147.86;100.00;10677.14;105867;1251;72458;-46
2024/03/30 02:13:15;;;;;;;13.10;6.00;;;;;;;-147.86;100.00;11102.80;105981;1251;61321;-46
2024/03/30 02:15:42;;;;;;;15.80;7.10;;;;;;;-147.86;100.00;11273.28;105644;1254;61212;-47
2024/03/30 02:18:09;;;;;;;12.00;5.50;;;;;;;-147.86;100.00;11655.86;105924;1256;74352;-46
2024/03/30 02:20:36;;;;;;;8.80;5.90;;;;;;;-147.86;100.00;12051.30;105813;1251;64461;-47
2024/03/30 02:23:03;;;;;;;16.10;5.80;;;;;;;-147.86;100.00;12449.90;106016;1251;72602;-46
2024/03/30 02:25:30;;;;;;;11.60;6.00;;;;;;;-147.86;100.00;12844.25;106007;1251;61154;-47
2024/03/30 02:27:57;;;;;;;12.30;6.70;;;;;;;-147.86;100.00;13047.48;105929;1251;61716;-48
2024/03/30 02:30:28;;;;;;;13.20;6.20;;;;;;;-147.86;100.00;13340.85;105888;1256;74498;-47
2024/03/30 02:32:56;;;;;;;10.60;5.90;;;;;;;-147.86;100.00;14052.85;105810;1254;64293;-45
2024/03/30 02:35:23;;;;;;;16.60;7.30;;;;;;;-147.86;100.00;14390.60;105965;1257;72544;-47
2024/03/30 02:37:52;;;;;;;14.40;6.50;;;;;;;-147.86;100.00;14692.25;105997;1251;61293;-49
2024/03/30 02:40:22;;;;;;;13.60;6.80;;;;;;;-147.86;100.00;15267.62;105962;1251;61335;-48
2024/03/30 02:42:49;;;;;;;8.90;5.40;;;;;;;-147.86;100.00;16014.56;105979;1256;74462;-46
2024/03/30 02:45:16;;;;;;;11.10;6.50;;;;;;;-147.86;100.00;16497.54;106020;1256;64660;-46
2024/03/30 02:47:43;;;;;;;17.00;7.00;;;;;;;-147.86;100.00;17140.08;105973;1251;72624;-47
2024/03/30 02:50:10;;;;;;;15.20;6.20;;;;;;;-147.86;100.00;17765.98;105915;1251;61938;-48
2024/03/30 02:52:37;;;;;;;15.40;6.40;;;;;;;-147.86;100.00;18327.42;105946;1251;61515;-47
2024/03/30 02:55:04;;;;;;;11.40;6.50;;;;;;;-147.86;100.00;18900.59;105944;1251;74428;-47
2024/03/30 02:57:31;;;;;;;14.40;6.10;;;;;;;-147.86;100.00;19375.78;105989;1255;64559;-46
2024/03/30 02:59:58;;;;;;;18.70;7.00;;;;;;;-147.86;100.00;19727.63;105987;1256;72519;-46
2024/03/30 03:02:25;;;;;;;13.90;6.50;;;;;;;-147.86;100.00;20218.09;105974;1255;61148;-48
2024/03/30 03:04:52;;;;;;;12.70;7.20;;;;;;;-147.86;100.00;20956.63;105971;1251;61252;-47
2024/03/30 03:07:19;;;;;;;11.80;6.50;;;;;;;-147.86;100.00;21862.76;105931;1255;74456;-46
2024/03/30 03:09:46;;;;;;;14.10;7.00;;;;;;;-147.86;100.00;22713.03;105894;1251;65588;-46
2024/03/30 03:12:13;;;;;;;12.90;6.00;;;;;;;-147.86;100.00;23644.89;105942;1256;72510;-48
2024/03/30 03:14:39;;;;;;;16.10;6.60;;;;;;;-147.86;100.00;24637.79;105963;1251;61787;-47
2024/03/30 03:17:06;;;;;;;14.50;6.00;;;;;;;-147.86;100.00;25553.75;106007;1251;61217;-49
2024/03/30 03:19:33;;;;;;;12.20;6.90;;;;;;;-147.86;100.00;26386.88;105927;1255;73905;-46
2024/03/30 03:22:00;;;;;;;11.20;7.30;;;;;;;-147.86;100.00;27233.44;105915;1251;65372;-46
2024/03/30 03:24:27;;;;;;;12.00;6.50;;;;;;;-147.86;100.00;28124.66;105939;1254;72964;-46
2024/03/30 03:26:53;;;;;;;15.60;5.80;;;;;;;-147.86;100.00;29377.78;105945;1251;61660;-47
2024/03/30 03:29:20;;;;;;;10.30;6.00;;;;;;;-147.86;100.00;30584.85;106009;1251;61316;-48
2024/03/30 03:31:47;;;;;;;12.70;5.90;;;;;;;-147.86;100.00;31759.49;105941;1251;74557;-46
2024/03/30 03:34:14;;;;;;;9.10;5.90;;;;;;;-147.86;100.00;32927.07;105952;1251;64623;-45
2024/03/30 03:36:41;;;;;;;13.00;6.00;;;;;;;-147.86;100.00;33826.23;105920;1255;72610;-46
2024/03/30 03:39:08;;;;;;;11.20;6.30;;;;;;;-147.86;100.00;34683.01;105951;1251;62256;-47
2024/03/30 03:41:35;;;;;;;9.30;5.80;;;;;;;-147.86;100.00;35597.80;106003;1251;61288;-46
2024/03/30 03:44:02;;;;;;;12.10;6.00;;;;;;;-147.86;100.00;36487.41;105969;1256;74457;-45
2024/03/30 03:46:31;;;;;;;13.30;6.20;;;;;;;-147.86;100.00;37353.76;105928;1251;65505;-45
2024/03/30 03:48:58;;;;;;;11.50;6.00;;;;;;;-147.86;100.00;38238.29;105968;1254;72138;-45
2024/03/30 03:51:24;;;;;;;12.80;5.40;;;;;;;-147.86;100.00;38998.63;105939;1251;61839;-48
2024/03/30 03:53:51;;;;;;;8.90;6.30;;;;;;;-147.86;100.00;39815.84;105926;1251;61259;-46
2024/03/30 03:56:18;;;;;;;16.80;10.80;;;;;;;-147.86;100.00;40735.75;105936;1251;74579;-46
2024/03/30 03:58:45;;;;;;;11.10;5.80;;;;;;;-147.86;100.00;41522.41;105964;1251;65416;-46
2024/03/30 04:01:14;;;;;;;7.50;5.20;;;;;;;-147.86;100.00;42396.91;105959;1251;71322;-46
2024/03/30 04:03:42;;;;;;;5.90;4.60;;;;;;;-147.86;100.00;43225.40;105925;1251;61758;-47
2024/03/30 04:06:09;;;;;;;8.60;5.50;;;;;;;-147.86;100.00;43904.46;105953;1251;61125;-48
2024/03/30 04:08:36;;;;;;;5.40;4.40;;;;;;;-147.86;100.00;44557.78;105953;1255;74558;-46
2024/03/30 04:11:05;;;;;;;6.30;4.40;;;;;;;-147.86;100.00;45218.26;105918;1251;64698;-47
2024/03/30 04:13:33;;;;;;;4.90;4.40;;;;;;;-147.86;100.00;45800.88;105986;1251;71717;-46
2024/03/30 04:16:04;;;;;;;7.10;5.40;;;;;;;-147.86;100.00;46426.29;105976;1255;61180;-49
2024/03/30 04:18:32;;;;;;;5.60;4.90;;;;;;;-147.86;100.00;47006.34;105966;1256;61205;-48
2024/03/30 04:21:01;;;;;;;7.60;5.10;;;;;;;-147.86;100.00;47550.02;105995;1255;74719;-46
2024/03/30 04:23:31;;;;;;;10.00;5.10;;;;;;;-147.86;100.00;48160.42;105980;1251;64593;-48
2024/03/30 04:26:05;;;;;;;7.80;6.20;;;;;;;-147.86;100.00;48657.20;105951;1253;71734;-46
2024/03/30 04:28:32;;;;;;;11.10;7.30;;;;;;;-147.86;100.00;49125.42;105927;1256;61188;-48
2024/03/30 04:31:00;;;;;;;14.00;10.80;;;;;;;-147.86;100.00;49683.51;106022;1251;61255;-48
2024/03/30 04:33:27;;;;;;;31.20;17.50;;;;;;;-147.86;100.00;50219.71;105935;1256;74687;-48
2024/03/30 04:36:01;;;;;;;15.50;10.80;;;;;;;-147.86;100.00;50663.00;105914;1251;63574;-47
2024/03/30 04:38:29;;;;;;;14.00;9.50;;;;;;;-147.86;100.00;50994.13;105967;1257;72599;-49
2024/03/30 04:41:06;;;;;;;13.60;7.20;;;;;;;-147.86;100.00;51425.35;105922;1251;61227;-49
2024/03/30 04:43:35;;;;;;;9.00;5.70;;;;;;;-147.86;100.00;51568.97;105916;1251;61335;-47
2024/03/30 04:46:04;;;;;;;11.40;4.50;;;;;;;-147.86;100.00;51803.24;105958;1251;74254;-45
2024/03/30 04:48:31;;;;;;;8.90;4.50;;;;;;;-147.86;100.00;51746.33;106026;1251;64343;-47
2024/03/30 04:51:01;;;;;;;10.50;4.60;;;;;;;-147.86;100.00;51442.21;105974;1251;72688;-46
2024/03/30 04:53:32;;;;;;;9.80;6.20;;;;;;;-147.86;100.00;50880.74;106038;1251;61324;-47
2024/03/30 04:56:00;;;;;;;9.20;6.50;;;;;;;-147.86;100.00;50185.58;105951;1256;61132;-46
2024/03/30 04:58:29;;;;;;;9.40;6.40;;;;;;;-147.86;100.00;49357.98;105989;1251;74741;-45
2024/03/30 05:01:06;;;;;;;13.40;6.40;;;;;;;-147.86;100.00;48374.50;105952;1252;64137;-47
2024/03/30 05:03:33;;;;;;;12.10;6.70;;;;;;;-147.86;100.00;47392.43;105981;1251;72581;-46
2024/03/30 05:06:02;;;;;;;9.70;6.70;;;;;;;-147.86;100.00;46831.14;106096;1251;62556;-47
2024/03/30 05:08:29;;;;;;;7.70;5.10;;;;;;;-147.86;100.00;46241.71;105981;1251;61333;-46
2024/03/30 05:10:56;;;;;;;7.00;5.00;;;;;;;-147.86;100.00;45788.32;105909;1252;74754;-48
2024/03/30 05:13:23;;;;;;;7.10;4.80;;;;;;;-147.86;100.00;45416.49;105961;1256;64533;-45
2024/03/30 05:15:50;;;;;;;10.00;3.90;;;;;;;-147.86;100.00;45052.93;105944;1251;72609;-54
2024/03/30 05:18:17;;;;;;;6.20;4.30;;;;;;;-147.86;100.00;44238.95;105668;1257;61212;-50
2024/03/30 05:20:53;;;;;;;3.60;3.00;;;;;;;-147.86;100.00;42877.32;105828;1257;61103;-46
2024/03/30 05:23:21;;;;;;;4.80;3.30;;;;;;;-147.86;100.00;41134.18;105774;1257;74642;-51
2024/03/30 05:25:49;;;;;;;6.50;3.50;;;;;;;-147.86;100.00;39135.98;105998;1251;65938;-48
2024/03/30 05:28:18;;;;;;;9.20;3.80;;;;;;;-147.86;100.00;36715.80;105922;1257;71571;-51
2024/03/30 05:30:47;;;;;;;4.00;3.40;;;;;;;-147.86;100.00;33696.69;105929;1251;61208;-48
2024/03/30 05:33:14;;;;;;;5.80;3.80;;;;;;;-147.86;100.00;29853.71;105955;1251;61208;-47
2024/03/30 05:35:41;;;;;;;9.50;3.70;;;;;;;-147.86;100.00;24938.29;106006;1251;74488;-45
2024/03/30 05:38:08;;;;;;;6.30;4.00;;;;;;;-147.86;100.00;18827.61;105926;1255;65201;-48
2024/03/30 05:40:36;;;;;;;4.50;3.20;;;;;;;-147.86;100.00;11856.21;105896;1256;72451;-48
2024/03/30 05:43:03;;;;;;;6.00;3.20;;;;;;;-147.86;100.00;5965.39;105975;1251;61224;-45
2024/03/30 05:45:30;;;;;;;9.90;3.90;;;;;;;-147.86;100.00;2358.38;106025;1251;61176;-49
2024/03/30 05:47:57;;;;;;;3.50;3.20;;;;;;;-147.86;100.00;-1117.77;105988;1255;74587;-46
2024/03/30 05:50:26;;;;;;;4.70;3.70;;;;;;;-147.86;100.00;-6941.06;105999;1251;65780;-46
2024/03/30 05:52:53;;;;;;;11.30;3.80;;;;;;;-147.86;100.00;-12158.85;105909;1257;71655;-47
2024/03/30 05:55:20;;;;;;;6.40;3.90;;;;;;;-147.86;100.00;-15279.82;105931;1256;61224;-46
2024/03/30 05:57:47;;;;;;;3.90;3.50;;;;;;;-147.86;100.00;-17461.52;106134;1251;61320;-48
2024/03/30 06:00:14;;;;;;;5.80;3.80;;;;;;;-147.86;100.00;-17609.17;105894;1251;74477;-49
2024/03/30 06:02:43;;;;;;;7.80;3.60;;;;;;;-147.86;100.00;-17609.17;105989;1257;65494;-49
2024/03/30 06:05:11;;;;;;;5.40;3.70;;;;;;;-147.86;100.00;-17609.17;105962;1256;71171;-48
2024/03/30 06:07:38;;;;;;;5.40;3.50;;;;;;;-147.86;100.00;-17609.17;105989;1251;61752;-48
2024/03/30 06:10:07;;;;;;;5.60;4.10;;;;;;;-147.86;100.00;-17609.17;106057;1251;61252;-48
2024/03/30 06:12:37;;;;;;;9.00;4.30;;;;;;;-147.86;100.00;-17609.17;105972;1255;74641;-48
2024/03/30 06:15:05;;;;;;;5.40;4.00;;;;;;;-147.86;100.00;-17609.17;105965;1251;64632;-48
2024/03/30 06:17:36;;;;;;;6.00;4.40;;;;;;;-147.86;100.00;-17609.17;105988;1251;72616;-47
2024/03/30 06:20:05;;;;;;;6.00;4.10;;;;;;;-147.86;100.00;-17609.17;105979;1251;63110;-48
2024/03/30 06:22:32;;;;;;;11.60;4.30;;;;;;;-147.86;100.00;-17609.17;105995;1256;61260;-47
2024/03/30 06:24:59;;;;;;;4.50;3.40;;;;;;;-147.86;100.00;-17609.17;106023;1251;74601;-46
2024/03/30 06:27:26;;;;;;;4.20;3.70;;;;;;;-147.86;100.00;-17609.17;105956;1256;63646;-47
2024/03/30 06:29:53;;;;;;;8.50;3.80;;;;;;;-147.86;100.00;-17609.17;105968;1251;71834;-45
2024/03/30 06:32:19;;;;;;;6.00;3.70;;;;;;;-147.86;100.00;-17609.17;105893;1251;61151;-47
2024/03/30 06:34:50;;;;;;;8.80;3.40;;;;;;;-147.86;100.00;-17609.17;105910;1251;61233;-48
2024/03/30 06:37:16;;;;;;;6.10;3.80;;;;;;;-147.86;100.00;-17609.17;105965;1255;74466;-48
2024/03/30 06:45:15;;;;;;;5.40;3.60;;;;;;;-147.86;100.00;-17609.17;105947;1251;61221;-48
2024/03/30 06:47:42;;;;;;;4.90;3.30;;;;;;;-147.86;100.00;-17609.17;106019;1251;61451;-49
2024/03/30 06:50:08;;;;;;;2.70;2.50;;;;;;;-147.86;100.00;-17609.17;106017;1255;74705;-50
2024/03/30 06:52:35;;;;;;;5.20;3.20;;;;;;;-147.86;100.00;-17609.17;105845;1255;64420;-50
2024/03/30 06:55:03;;;;;;;4.50;2.70;;;;;;;-147.86;100.00;-17609.17;105692;1251;72562;-47
2024/03/30 06:57:30;;;;;;;10.90;2.70;;;;;;;-147.86;100.00;-17609.17;105767;1251;61755;-47
2024/03/30 06:59:57;;;;;;;9.60;3.20;;;;;;;-147.86;100.00;-17609.17;105928;1253;61221;-47
2024/03/30 07:02:24;;;;;;;3.80;3.20;;;;;;;-147.86;100.00;-17609.17;105933;1255;73624;-50
2024/03/30 07:04:51;;;;;;;6.00;2.40;;;;;;;-147.86;100.00;-17609.17;105972;1251;64636;-48
2024/03/30 07:07:18;;;;;;;6.80;3.10;;;;;;;-147.86;100.00;-17609.17;106008;1251;71385;-49
2024/03/30 07:09:45;;;;;;;5.60;2.60;;;;;;;-147.86;100.00;-17609.17;105975;1251;61211;-46
2024/03/30 07:12:12;;;;;;;5.00;2.40;;;;;;;-147.86;100.00;-17609.17;105894;1251;61317;-49
2024/03/30 07:14:39;;;;;;;5.20;2.50;;;;;;;-147.86;100.00;-17609.17;105928;1257;74438;-47
2024/03/30 07:17:06;;;;;;;5.10;2.70;;;;;;;-147.86;100.00;-17609.17;105961;1251;63566;-48
2024/03/30 07:19:41;;;;;;;4.10;2.30;;;;;;;-147.86;100.00;-17609.17;105968;1251;72618;-48
2024/03/30 07:22:08;;;;;;;2.60;2.20;;;;;;;-147.86;100.00;-17609.17;106032;1251;61228;-50
2024/03/30 07:24:35;;;;;;;3.10;2.30;;;;;;;-147.86;100.00;-17609.17;105940;1251;61342;-46
2024/03/30 07:27:04;;;;;;;3.70;2.10;;;;;;;-147.86;100.00;-17609.17;105903;1251;75052;-45
2024/03/30 07:29:32;;;;;;;2.00;1.70;;;;;;;-147.86;100.00;-17609.17;105989;1251;64682;-46
2024/03/30 07:32:00;;;;;;;8.10;2.20;;;;;;;-147.86;100.00;-17609.17;106013;1251;72589;-48
2024/03/30 07:34:27;;;;;;;4.50;2.10;;;;;;;-147.86;100.00;-17609.17;105967;1251;61151;-46
2024/03/30 07:36:54;;;;;;;5.90;1.80;;;;;;;-147.86;100.00;-17609.17;105979;1251;61268;-46
2024/03/30 07:39:21;;;;;;;6.80;2.20;;;;;;;-147.86;100.00;-17609.17;106030;1252;73568;-48
2024/03/30 07:41:48;;;;;;;8.90;2.10;;;;;;;-147.86;100.00;-17609.17;105933;1255;65403;-47
2024/03/30 07:44:17;;;;;;;6.60;1.30;;;;;;;-147.86;100.00;-17609.17;105980;1251;72584;-48
2024/03/30 07:46:44;;;;;;;3.20;1.60;;;;;;;-147.86;100.00;-17609.17;106036;1257;61154;-50
2024/03/30 07:49:11;;;;;;;7.00;1.90;;;;;;;-147.86;100.00;-17609.17;105928;1251;61336;-47
2024/03/30 07:51:38;;;;;;;5.30;1.80;;;;;;;-147.86;100.00;-17609.17;105988;1256;74436;-48
2024/03/30 07:54:05;;;;;;;3.40;2.00;;;;;;;-147.86;100.00;-17609.17;105935;1251;65434;-46
2024/03/30 07:56:32;;;;;;;5.00;1.70;;;;;;;-147.86;100.00;-17460.55;105954;1255;72499;-47
2024/03/30 07:59:01;;;;;;;1.50;1.20;;;;;;;-147.86;99.79;-12718.48;105974;1251;61305;-46
2024/03/30 08:01:31;;;;;;;7.60;1.90;;;;;;;-147.86;99.79;-1785.28;105962;1252;61201;-48
2024/03/30 08:03:58;;;;;;;6.70;2.00;;;;;;;-147.86;99.69;1733.85;105941;1252;74600;-47
2024/03/30 08:06:24;;;;;;;4.60;1.60;;;;;;;-147.86;97.68;8236.28;105971;1251;65907;-46
2024/03/30 08:08:51;;;;;;;1.90;1.30;;;;;;;-147.86;98.86;12957.68;106006;1251;72356;-45
2024/03/30 08:11:18;;;;;;;4.80;1.70;;;;;;;-147.86;95.97;16391.68;105893;1257;61135;-48
2024/03/30 08:13:45;;;;;;;4.30;1.30;;;;;;;-147.86;93.91;24164.55;105909;1251;61240;-47
2024/03/30 08:16:12;;;;;;;2.80;1.50;;;;;;;-147.86;95.39;27457.69;106024;1255;74279;-47
2024/03/30 08:18:40;;;;;;;3.90;1.80;;;;;;;-147.86;96.80;28501.60;105946;1256;64649;-45
2024/03/30 08:21:07;;;;;;;1.80;1.30;;;;;;;-147.86;97.78;25062.21;105905;1251;71452;-46
2024/03/30 08:23:34;;;;;;;9.50;1.40;;;;;;;-147.86;95.04;28280.58;105968;1256;61224;-49
2024/03/30 08:26:02;;;;;;;5.10;1.70;;;;;;;-147.86;94.68;32339.43;105956;1253;62043;-49
2024/03/30 08:28:29;;;;;;;2.50;1.00;;;;;;;-147.86;94.13;37235.64;105873;1255;74709;-47
2024/03/30 08:30:56;;;;;;;3.00;1.40;;;;;;;-147.86;90.39;41439.17;106027;1256;64628;-46
2024/03/30 08:33:23;;;;;;;2.80;1.00;;;;;;;-147.86;88.71;44200.96;105922;1254;73087;-47
2024/03/30 08:35:53;;;;;;;0.90;0.90;;;;;;;-147.86;81.95;46114.00;105960;1251;61622;-47
2024/03/30 08:38:20;;;;;;;2.40;1.00;;;;;;;-147.86;77.73;47876.57;105954;1251;61308;-49
2024/03/30 08:40:50;;;;;;;1.50;1.00;;;;;;;-147.86;76.99;48776.01;105680;1257;388489;-49
2024/03/30 08:45:34;;;;;;;3.70;1.20;;;;;;;-147.86;80.08;48882.03;102517;1295;602920;-46
2024/03/30 08:48:01;;;;;;;2.00;1.10;;;;;;;-147.86;84.12;49619.57;105125;1269;60552;-47
2024/03/30 08:50:29;;;;;;;1.60;1.00;;;;;;;-147.86;82.93;49708.99;105856;1254;61344;-48
2024/03/30 08:52:56;;;;;;;4.60;1.10;;;;;;;-147.86;76.05;49803.52;105801;1255;72925;-49
2024/03/30 08:55:23;;;;;;;4.40;0.80;;;;;;;-147.86;69.45;49889.03;105842;1257;66822;-48
2024/03/30 08:57:50;;;;;;;4.10;0.90;;;;;;;-147.86;74.59;50023.18;105613;1257;245834;-47
2024/03/30 09:00:17;;;;;;;1.20;1.00;;;;;;;-147.86;76.96;50114.57;106054;1256;60176;-47
2024/03/30 09:02:44;;;;;;;3.60;1.00;;;;;;;-147.86;77.68;50158.51;105945;1257;61475;-48
2024/03/30 09:05:12;;;;;;;1.30;0.90;;;;;;;-147.86;71.47;50165.18;105993;1257;72841;-49
2024/03/30 09:07:40;;;;;;;2.10;0.80;;;;;;;-147.86;66.86;50233.04;105987;1256;65920;-48
2024/03/30 09:10:07;;;;;;;1.60;0.90;;;;;;;-147.86;64.04;50278.54;105983;1256;72494;-47
2024/03/30 09:12:34;;;;;;;1.40;1.00;;;;;;;-147.86;58.05;50253.44;106005;1256;60422;-52
2024/03/30 09:15:01;;;;;;;3.10;1.10;;;;;;;-147.86;59.67;50253.83;105951;1257;60536;-52
2024/03/30 09:17:28;;;;;;;4.00;1.20;;;;;;;-147.86;55.92;50213.82;105978;1257;75357;-51
2024/03/30 09:19:55;;;;;;;3.20;0.80;;;;;;;-147.86;52.70;50118.49;105927;1257;65926;-50
2024/03/30 09:22:22;;;;;;;1.70;1.20;;;;;;;-147.86;55.24;50120.46;105994;1256;72577;-46
2024/03/30 09:24:50;;;;;;;5.60;1.00;;;;;;;-147.86;59.57;50160.86;105923;1257;61391;-49
2024/03/30 09:27:18;;;;;;;4.80;0.90;;;;;;;-147.86;55.80;50189.50;105886;1255;61488;-51
2024/03/30 09:29:45;;;;;;;1.90;1.00;;;;;;;-147.86;50.84;50122.81;105919;1257;74297;-50
2024/03/30 09:32:12;;;;;;;1.20;1.00;;;;;;;-147.86;52.92;50125.95;105849;1259;65939;-48
2024/03/30 09:34:39;;;;;;;9.40;1.60;;;;;;;-147.86;56.57;50202.05;105855;1259;73758;-47
2024/03/30 09:37:12;;;;;;;3.70;1.00;;;;;;;-147.86;52.54;50253.05;105812;1257;60785;-48
2024/03/30 09:39:39;;;;;;;6.30;1.00;;;;;;;-147.86;48.89;50210.29;105887;1256;61637;-49
2024/03/30 09:42:18;;;;;;;1.50;0.90;;;;;;;-147.86;52.42;50236.96;105837;1258;73665;-48
2024/03/30 09:44:45;;;;;;;1.40;0.80;;;;;;;-147.86;55.90;50315.81;105846;1257;66113;-50
2024/03/30 09:47:11;;;;;;;3.70;1.00;;;;;;;-147.86;55.62;50381.32;105695;1257;73879;-52
2024/03/30 09:49:38;;;;;;;1.00;1.00;;;;;;;-147.86;50.65;50399.76;105646;1259;62095;-50
2024/03/30 09:52:06;;;;;;;1.60;1.00;;;;;;;-147.86;49.20;50362.10;105676;1255;61795;-47
2024/03/30 09:54:32;;;;;;;4.00;1.00;;;;;;;-147.86;51.41;50344.05;105879;1257;73736;-47
2024/03/30 09:56:59;;;;;;;1.60;1.20;;;;;;;-147.86;55.49;50397.01;105882;1259;65370;-51
2024/03/30 09:59:26;;;;;;;0.80;0.80;;;;;;;-147.86;55.94;50503.32;105871;1257;72448;-50
2024/03/30 10:01:55;;;;;;;1.20;0.90;;;;;;;-147.86;48.53;50480.96;105845;1257;60421;-48
2024/03/30 10:04:22;;;;;;;0.70;0.60;;;;;;;-147.86;45.92;50374.65;105907;1256;61492;-49
2024/03/30 10:06:51;;;;;;;1.50;1.00;;;;;;;-147.86;49.96;50375.83;105685;1259;74479;-47
2024/03/30 10:09:19;;;;;;;1.90;1.00;;;;;;;-147.86;51.08;50389.95;105883;1257;64689;-51
2024/03/30 10:11:48;;;;;;;3.50;1.00;;;;;;;-147.86;50.77;50396.62;105844;1254;72442;-48
2024/03/30 10:14:35;;;;;;;2.40;1.10;;;;;;;-147.86;50.08;50400.15;105848;1256;61842;-51
2024/03/30 10:17:03;;;;;;;5.90;1.20;;;;;;;-147.86;44.94;50287.17;105841;1254;61588;-49
2024/03/30 10:19:31;;;;;;;1.20;1.00;;;;;;;-147.86;46.97;50248.73;105882;1257;75174;-49
2024/03/30 10:21:58;;;;;;;1.60;1.20;;;;;;;-147.86;46.09;50234.21;105932;1256;64456;-52
2024/03/30 10:24:27;;;;;;;4.10;1.20;;;;;;;-147.86;45.86;50185.18;105869;1257;72620;-47
2024/03/30 10:26:54;;;;;;;1.40;0.80;;;;;;;-147.86;47.98;50142.42;105868;1257;60561;-47
2024/03/30 10:29:21;;;;;;;3.40;1.30;;;;;;;-147.86;50.67;50134.97;105872;1254;60597;-45
2024/03/30 10:31:50;;;;;;;1.40;1.30;;;;;;;-147.86;55.87;50193.81;105900;1254;75269;-46
2024/03/30 10:34:17;;;;;;;0.90;0.90;;;;;;;-147.86;54.55;50293.05;105870;1257;66461;-50
2024/03/30 10:36:46;;;;;;;3.70;0.80;;;;;;;-147.86;47.46;50256.97;105874;1256;74109;-49
2024/03/30 10:39:18;;;;;;;2.30;0.70;;;;;;;-147.86;45.36;50178.90;105875;1257;61903;-48
2024/03/30 10:41:46;;;;;;;0.90;0.90;;;;;;;-147.86;45.96;50123.60;105886;1255;61495;-48
2024/03/30 10:44:12;;;;;;;1.10;1.10;;;;;;;-147.86;48.88;50177.34;105858;1257;73794;-48
2024/03/30 10:46:39;;;;;;;1.70;0.90;;;;;;;-147.86;43.79;50195.77;105845;1256;65357;-50
2024/03/30 10:49:06;;;;;;;3.30;1.00;;;;;;;-147.86;46.20;50225.20;105842;1257;72576;-46
2024/03/30 10:51:33;;;;;;;1.70;1.00;;;;;;;-147.86;44.70;50242.84;105850;1257;61676;-50
2024/03/30 10:54:05;;;;;;;0.90;0.90;;;;;;;-147.86;42.68;50213.04;105891;1257;61408;-47
2024/03/30 10:56:32;;;;;;;1.00;0.90;;;;;;;-147.86;40.97;50129.87;105869;1254;73041;-47
2024/03/30 10:59:01;;;;;;;2.10;0.90;;;;;;;-147.86;40.73;50046.71;105859;1257;66305;-49
2024/03/30 11:01:29;;;;;;;0.90;0.90;;;;;;;-147.86;41.06;50003.96;105684;1254;73848;-50
2024/03/30 11:03:56;;;;;;;2.60;1.00;;;;;;;-147.86;43.40;50012.59;105866;1254;61560;-49
2024/03/30 11:06:23;;;;;;;0.90;0.90;;;;;;;-147.86;43.33;50051.02;105728;1255;60534;-50
2024/03/30 11:08:50;;;;;;;4.10;1.00;;;;;;;-147.86;45.27;50105.95;105854;1258;75198;-51